Time;durP1;ratioP1;P1;durP2;ratioP2;P2;SDS_P1;SDS_P2;PMS_P1;PMS_P2;Temp;Humidity;BMP_temperature;BMP_pressure;BME280_temperature;BME280_humidity;BME280_pressure;Samples;Min_cycle;Max_cycle;Signal;HPM_P1;HPM_P2
2021/09/07 15:14:10;;;;;;;5.54;2.66;;;;;;;23.44;25.22;100951.09;373856;141;879504;-62
2021/09/07 15:15:12;;;;;;;8.25;2.79;;;;;;;23.24;26.00;100960.78;366519;144;859411;-63
2021/09/07 15:16:14;;;;;;;4.55;2.50;;;;;;;23.41;25.89;100956.52;368021;144;856627;-63
2021/09/07 15:17:16;;;;;;;5.30;2.68;;;;;;;23.71;25.14;100974.52;367042;144;856334;-63
2021/09/07 15:18:18;;;;;;;4.65;2.63;;;;;;;23.97;25.19;100954.78;367750;144;857786;-63
2021/09/07 15:19:20;;;;;;;4.89;2.79;;;;;;;24.04;25.40;100958.04;366219;144;856288;-63
2021/09/07 15:20:22;;;;;;;9.02;2.63;;;;;;;23.76;25.55;100949.59;360147;147;864209;-63
2021/09/07 15:21:24;;;;;;;4.89;2.42;;;;;;;23.43;25.95;100952.02;366558;144;863817;-64
2021/09/07 15:22:26;;;;;;;8.06;3.03;;;;;;;23.14;26.89;100952.37;365012;144;856611;-64
2021/09/07 15:23:28;;;;;;;5.79;2.42;;;;;;;;;;361084;146;863715;-63
2021/09/07 15:24:29;;;;;;;5.01;2.25;;;;;;;;;;360517;146;856289;-64
2021/09/07 15:25:31;;;;;;;6.51;2.43;;;;;;;;;;361173;147;856326;-64
2021/09/07 15:26:33;;;;;;;6.68;2.76;;;;;;;;;;361747;146;864005;-64
2021/09/07 15:27:36;;;;;;;9.91;2.68;;;;;;;;;;362458;146;856370;-64
2021/09/07 15:28:37;;;;;;;5.72;2.66;;;;;;;;;;361906;146;856303;-64
2021/09/07 15:29:39;;;;;;;6.89;2.87;;;;;;;;;;361996;147;856745;-64
2021/09/07 15:30:41;;;;;;;9.03;2.81;;;;;;;;;;362467;147;856315;-63
2021/09/07 15:31:42;;;;;;;8.76;2.48;;;;;;;;;;351657;150;856843;-64
2021/09/07 15:32:44;;;;;;;10.31;2.71;;;;;;;;;;351944;148;863752;-63
2021/09/07 15:33:46;;;;;;;11.44;3.15;;;;;;;;;;361999;147;856279;-64
2021/09/07 15:34:47;;;;;;;10.38;2.81;;;;;;;;;;361397;147;863706;-63
2021/09/07 15:35:49;;;;;;;4.31;2.77;;;;;;;;;;361802;146;856269;-63
2021/09/07 15:36:50;;;;;;;5.96;2.24;;;;;;;;;;364563;147;856381;-63
2021/09/07 15:37:52;;;;;;;5.50;2.37;;;;;;;;;;363122;146;856435;-64
2021/09/07 15:38:53;;;;;;;9.78;2.50;;;;;;;;;;362434;146;856293;-64
2021/09/07 15:40:01;;;;;;;8.62;2.64;;;;;;;;;;361666;146;856286;-64
2021/09/07 15:41:01;;;;;;;14.21;2.66;;;;;;;;;;362752;147;856265;-63
2021/09/07 15:42:05;;;;;;;7.49;2.74;;;;;;;;;;362562;146;856244;-64
2021/09/07 15:43:10;;;;;;;13.38;3.01;;;;;;;;;;364580;146;856460;-63
2021/09/07 15:44:11;;;;;;;13.69;2.67;;;;;;;;;;360423;147;864064;-64
2021/09/07 15:45:13;;;;;;;10.88;2.68;;;;;;;;;;361566;147;864587;-64
2021/09/07 15:46:15;;;;;;;8.37;2.41;;;;;;;;;;360201;146;856673;-64
2021/09/07 15:47:16;;;;;;;7.05;2.65;;;;;;;;;;359889;148;856252;-63
2021/09/07 15:48:18;;;;;;;7.69;2.51;;;;;;;;;;353737;148;863890;-63
2021/09/07 15:49:19;;;;;;;5.11;2.65;;;;;;;;;;355928;148;856357;-64
2021/09/07 15:50:21;;;;;;;11.43;2.69;;;;;;;;;;360725;147;864432;-63
2021/09/07 15:51:23;;;;;;;7.36;2.62;;;;;;;;;;360018;147;863697;-63
2021/09/07 15:52:24;;;;;;;7.22;2.75;;;;;;;;;;362732;146;857122;-63
2021/09/07 15:53:29;;;;;;;7.44;2.64;;;;;;;;;;362833;147;856341;-63
2021/09/07 15:54:32;;;;;;;6.50;2.47;;;;;;;;;;362885;147;856240;-63
2021/09/07 15:55:33;;;;;;;10.10;2.56;;;;;;;;;;362048;147;857128;-63
2021/09/07 15:56:34;;;;;;;8.74;2.59;;;;;;;;;;362632;147;856370;-64
2021/09/07 15:57:36;;;;;;;9.58;2.56;;;;;;;;;;361820;147;856203;-63
2021/09/07 15:58:38;;;;;;;11.10;2.46;;;;;;;;;;363814;147;863763;-65
2021/09/07 15:59:39;;;;;;;9.71;3.06;;;;;;;;;;362184;146;864895;-63
2021/09/07 16:00:43;;;;;;;13.37;3.04;;;;;;;;;;363543;146;856926;-64
2021/09/07 16:01:44;;;;;;;12.71;2.99;;;;;;;;;;362837;146;856323;-64
2021/09/07 16:02:46;;;;;;;7.46;2.63;;;;;;;;;;362946;147;856911;-64
2021/09/07 16:03:47;;;;;;;15.61;3.13;;;;;;;;;;362343;146;856271;-64
2021/09/07 16:04:49;;;;;;;13.81;2.90;;;;;;;;;;358053;148;856481;-64
2021/09/07 16:05:51;;;;;;;8.26;2.74;;;;;;;;;;356321;146;856580;-64
2021/09/07 16:06:53;;;;;;;8.47;2.42;;;;;;;;;;363542;147;856264;-64
2021/09/07 16:07:55;;;;;;;8.57;2.45;;;;;;;;;;364011;146;856219;-64
2021/09/07 16:08:57;;;;;;;14.13;2.75;;;;;;;;;;362673;147;864375;-64
2021/09/07 16:09:59;;;;;;;10.30;3.05;;;;;;;;;;363577;147;856402;-64
2021/09/07 16:11:01;;;;;;;12.05;2.31;;;;;;;;;;361555;146;863802;-63
2021/09/07 16:12:02;;;;;;;8.32;2.59;;;;;;;;;;361987;147;856255;-64
2021/09/07 16:13:04;;;;;;;9.50;2.76;;;;;;;;;;361768;147;856830;-63
2021/09/07 16:14:06;;;;;;;10.88;2.67;;;;;;;;;;359984;147;864647;-64
2021/09/07 16:15:07;;;;;;;8.16;2.61;;;;;;;;;;360531;146;856794;-64
2021/09/07 16:16:09;;;;;;;6.72;2.36;;;;;;;;;;361099;146;864027;-64
2021/09/07 16:17:11;;;;;;;14.40;2.88;;;;;;;;;;359212;146;856677;-64
2021/09/07 16:18:12;;;;;;;10.59;3.44;;;;;;;;;;359438;146;864054;-64
2021/09/07 16:19:14;;;;;;;11.28;2.86;;;;;;;;;;359047;146;856571;-64
2021/09/07 16:20:17;;;;;;;10.75;2.48;;;;;;;;;;360511;146;856261;-63
2021/09/07 16:21:18;;;;;;;9.86;3.42;;;;;;;;;;358620;146;863682;-64
2021/09/07 16:22:20;;;;;;;11.15;2.59;;;;;;;;;;361291;146;864245;-63
2021/09/07 16:23:22;;;;;;;9.72;3.74;;;;;;;;;;357876;149;863708;-64
2021/09/07 16:24:23;;;;;;;9.36;2.31;;;;;;;;;;358163;146;863724;-64
2021/09/07 16:25:25;;;;;;;10.52;2.45;;;;;;;;;;359872;146;856378;-64
2021/09/07 16:26:27;;;;;;;8.59;2.50;;;;;;;;;;358225;148;856331;-63
2021/09/07 16:27:28;;;;;;;6.22;2.43;;;;;;;;;;360166;147;863770;-64
2021/09/07 16:28:32;;;;;;;11.55;3.03;;;;;;;;;;358761;147;863762;-64
2021/09/07 16:29:33;;;;;;;8.76;2.86;;;;;;;;;;359287;147;863827;-64
2021/09/07 16:30:35;;;;;;;16.12;2.49;;;;;;;;;;362705;147;858074;-64
2021/09/07 16:31:37;;;;;;;7.72;2.75;;;;;;;;;;359072;148;864031;-64
2021/09/07 16:32:40;;;;;;;6.23;2.79;;;;;;;;;;358784;146;856466;-64
2021/09/07 16:33:41;;;;;;;7.62;2.53;;;;;;;;;;358708;149;856846;-64
2021/09/07 16:34:43;;;;;;;11.43;2.47;;;;;;;;;;357033;147;856399;-65
2021/09/07 16:35:44;;;;;;;5.75;2.56;;;;;;;;;;359739;147;856229;-64
2021/09/07 16:36:47;;;;;;;7.79;2.95;;;;;;;;;;358969;147;856194;-63
2021/09/07 16:37:48;;;;;;;5.94;2.06;;;;;;;;;;359800;149;856222;-63
2021/09/07 16:38:50;;;;;;;6.72;2.55;;;;;;;;;;357967;148;863789;-63
2021/09/07 16:39:51;;;;;;;4.07;2.17;;;;;;;;;;358435;147;863643;-63
2021/09/07 16:40:53;;;;;;;5.11;2.49;;;;;;;;;;359375;147;857154;-65
2021/09/07 16:41:55;;;;;;;9.74;3.04;;;;;;;;;;358764;148;864013;-63
2021/09/07 16:42:58;;;;;;;5.82;2.52;;;;;;;;;;359247;147;863875;-62
2021/09/07 16:44:02;;;;;;;9.36;2.74;;;;;;;;;;358821;148;856460;-63
2021/09/07 16:45:04;;;;;;;6.22;2.67;;;;;;;;;;360209;148;856884;-63
2021/09/07 16:46:07;;;;;;;9.07;2.78;;;;;;;;;;357148;147;856369;-63
2021/09/07 16:47:08;;;;;;;10.03;2.61;;;;;;;;;;359801;147;856968;-63
2021/09/07 16:48:10;;;;;;;6.78;2.51;;;;;;;;;;351460;152;863839;-63
2021/09/07 16:49:12;;;;;;;6.41;2.51;;;;;;;;;;352320;149;856403;-64
2021/09/07 16:50:13;;;;;;;18.95;2.98;;;;;;;;;;351824;149;856731;-63
2021/09/07 16:51:17;;;;;;;6.22;2.21;;;;;;;;;;352814;150;856341;-63
2021/09/07 16:52:19;;;;;;;9.35;3.01;;;;;;;;;;343590;152;863809;-62
2021/09/07 16:53:23;;;;;;;5.74;3.06;;;;;;;;;;343915;153;857463;-63
2021/09/07 16:55:45;;;;;;;8.29;3.01;;;;;;;;;;352788;149;856279;-63
2021/09/07 16:56:47;;;;;;;6.94;2.45;;;;;;;;;;351311;150;856260;-63
2021/09/07 16:57:49;;;;;;;5.49;2.58;;;;;;;;;;351421;150;856338;-63
2021/09/07 16:58:51;;;;;;;9.72;2.93;;;;;;;;;;350759;149;856304;-63
2021/09/07 16:59:54;;;;;;;8.06;2.69;;;;;;;;;;348013;151;856298;-63
2021/09/07 17:00:56;;;;;;;6.97;3.06;;;;;;;;;;348245;151;863772;-63
2021/09/07 17:01:58;;;;;;;8.65;2.71;;;;;;;;;;349813;151;863671;-63
2021/09/07 17:03:00;;;;;;;5.76;2.42;;;;;;;;;;352180;149;857031;-63
2021/09/07 17:04:02;;;;;;;4.64;2.68;;;;;;;;;;352184;149;861334;-64
2021/09/07 17:05:04;;;;;;;9.67;3.21;;;;;;;;;;350713;149;864355;-63
2021/09/07 17:06:07;;;;;;;5.80;2.89;;;;;;;;;;348886;150;856957;-64
2021/09/07 17:07:16;;;;;;;6.93;2.78;;;;;;;;;;352668;149;856497;-63
2021/09/07 17:08:23;;;;;;;6.83;2.63;;;;;;;;;;351599;150;856488;-64
2021/09/07 17:09:19;;;;;;;6.06;2.97;;;;;;;;;;346032;154;856777;-63
2021/09/07 17:10:21;;;;;;;6.54;2.65;;;;;;;;;;346604;151;856655;-63
2021/09/07 17:11:23;;;;;;;10.59;2.90;;;;;;;;;;347477;152;856381;-63
2021/09/07 17:12:24;;;;;;;6.84;2.99;;;;;;;;;;348836;152;856282;-64
2021/09/07 17:13:26;;;;;;;4.96;2.76;;;;;;;;;;350940;152;856222;-64
2021/09/07 17:14:28;;;;;;;7.85;3.01;;;;;;;;;;348222;152;864072;-63
2021/09/07 17:15:30;;;;;;;4.11;2.79;;;;;;;;;;349677;151;856931;-63
2021/09/07 17:16:32;;;;;;;8.60;2.89;;;;;;;;;;347741;154;856328;-63
2021/09/07 17:17:34;;;;;;;7.26;2.91;;;;;;;;;;351187;152;856973;-63
2021/09/07 17:18:36;;;;;;;4.92;2.89;;;;;;;;;;351278;152;864289;-63
2021/09/07 17:19:37;;;;;;;4.30;2.72;;;;;;;;;;351090;152;856297;-64
2021/09/07 17:20:39;;;;;;;7.30;3.04;;;;;;;;;;350755;152;857178;-63
2021/09/07 17:21:41;;;;;;;8.51;3.33;;;;;;;;;;351460;150;856469;-63
2021/09/07 17:22:42;;;;;;;8.23;3.02;;;;;;;;;;349685;150;856259;-64
2021/09/07 17:23:44;;;;;;;11.15;3.15;;;;;;;;;;349764;151;863679;-63
2021/09/07 17:24:46;;;;;;;8.34;2.92;;;;;;;;;;350858;150;856243;-63
2021/09/07 17:25:48;;;;;;;9.75;3.10;;;;;;;;;;351233;151;863747;-63
2021/09/07 17:26:50;;;;;;;8.75;3.14;;;;;;;;;;348342;152;863767;-64
2021/09/07 17:27:51;;;;;;;8.44;3.66;;;;;;;;;;347260;151;863709;-63
2021/09/07 17:28:53;;;;;;;7.35;3.44;;;;;;;;;;345019;151;864124;-64
2021/09/07 17:29:55;;;;;;;18.39;4.11;;;;;;;;;;341953;155;863862;-64
2021/09/07 17:30:59;;;;;;;10.39;4.30;;;;;;;;;;343573;155;856295;-63
2021/09/07 17:32:11;;;;;;;12.10;4.45;;;;;;;;;;344834;151;856862;-63
2021/09/07 17:34:24;;;;;;;11.54;4.61;;;;;;;;;;343782;155;856409;-63
2021/09/07 17:35:27;;;;;;;13.56;5.29;;;;;;;;;;344028;155;856569;-63
2021/09/07 17:38:38;;;;;;;12.45;5.10;;;;;;;;;;323981;164;856678;-64
2021/09/07 17:38:54;;;;;;;11.26;5.21;;;;;;;;;;319684;164;856655;-64
2021/09/07 17:42:33;;;;;;;12.44;5.46;;;;;;;;;;336915;157;864891;-63
2021/09/07 17:43:35;;;;;;;14.43;6.51;;;;;;;;;;344054;147;856466;-63
2021/09/07 17:44:37;;;;;;;12.61;5.81;;;;;;;;;;360595;147;856518;-63
2021/09/07 17:45:38;;;;;;;12.78;5.63;;;;;;;;;;356989;148;864013;-64
2021/09/07 17:46:40;;;;;;;15.63;7.16;;;;;;;;;;358959;148;856422;-64
2021/09/07 17:47:43;;;;;;;21.00;8.38;;;;;;;;;;356960;147;864347;-64
2021/09/07 17:48:44;;;;;;;14.46;7.42;;;;;;;;;;358410;148;863702;-64
2021/09/07 17:49:47;;;;;;;24.39;10.42;;;;;;;;;;358728;148;856402;-64
2021/09/07 17:50:49;;;;;;;27.89;11.46;;;;;;;;;;359724;148;863694;-63
2021/09/07 17:51:50;;;;;;;18.08;8.57;;;;;;;;;;359700;148;863733;-63
2021/09/07 17:52:52;;;;;;;21.36;10.23;;;;;;;;;;359704;148;856263;-64
2021/09/07 17:53:54;;;;;;;23.72;9.79;;;;;;;;;;358174;148;863829;-63
2021/09/07 17:54:56;;;;;;;24.99;10.00;;;;;;;;;;356508;147;863700;-64
2021/09/07 17:55:57;;;;;;;21.70;8.89;;;;;;;;;;359686;148;856537;-63
2021/09/07 17:56:59;;;;;;;17.92;8.80;;;;;;;;;;361355;147;863441;-63
2021/09/07 17:58:00;;;;;;;17.92;9.11;;;;;;;;;;358937;147;864552;-64
2021/09/07 17:59:02;;;;;;;26.79;10.65;;;;;;;;;;360241;148;856847;-64
2021/09/07 18:00:04;;;;;;;24.31;10.87;;;;;;;;;;357560;148;864358;-64
2021/09/07 18:01:06;;;;;;;21.93;10.90;;;;;;;;;;356840;148;856493;-64
2021/09/07 18:02:08;;;;;;;33.22;12.46;;;;;;;;;;355840;147;856551;-64
2021/09/07 18:03:11;;;;;;;26.00;11.79;;;;;;;;;;358397;148;864107;-64
2021/09/07 18:04:13;;;;;;;22.26;10.45;;;;;;;;;;356954;148;856523;-64
2021/09/07 18:05:14;;;;;;;21.27;10.79;;;;;;;;;;359691;148;864103;-64
2021/09/07 18:06:17;;;;;;;23.84;10.75;;;;;;;;;;357237;147;856824;-64
2021/09/07 18:07:18;;;;;;;21.81;10.56;;;;;;;;;;359533;147;856431;-64
2021/09/07 18:08:20;;;;;;;28.47;11.52;;;;;;;;;;362582;147;856472;-64
2021/09/07 18:09:24;;;;;;;27.74;12.34;;;;;;;;;;360893;148;856192;-64
2021/09/07 18:10:25;;;;;;;26.05;12.37;;;;;;;;;;357563;147;863529;-64
2021/09/07 18:11:27;;;;;;;23.29;11.86;;;;;;;;;;356973;147;856723;-64
2021/09/07 18:12:28;;;;;;;33.39;13.00;;;;;;;;;;361133;147;863879;-64
2021/09/07 18:18:41;;;;;;;32.80;13.16;;;;;;;14.62;51.01;100959.39;356897;141;879405;-62
2021/09/07 18:19:47;;;;;;;27.78;12.06;;;;;;;14.50;51.13;100972.52;343620;151;856353;-61
2021/09/07 18:20:48;;;;;;;24.56;13.07;;;;;;;14.42;51.14;100968.23;344877;153;857054;-59
2021/09/07 18:21:50;;;;;;;31.07;13.81;;;;;;;14.37;51.67;100969.16;344188;152;856329;-60
2021/09/07 18:22:53;;;;;;;26.02;13.39;;;;;;;14.30;51.88;100970.93;340219;155;856248;-60
2021/09/07 18:23:55;;;;;;;28.06;13.05;;;;;;;;;;340351;155;864346;-60
2021/09/07 18:24:57;;;;;;;31.95;14.67;;;;;;;;;;340391;155;856215;-60
2021/09/07 18:25:59;;;;;;;28.71;13.84;;;;;;;;;;340733;155;856235;-60
2021/09/07 18:27:02;;;;;;;29.17;14.53;;;;;;;;;;341828;155;856468;-60
2021/09/07 18:28:04;;;;;;;27.43;13.32;;;;;;;;;;340667;155;856349;-60
2021/09/07 18:29:06;;;;;;;34.66;14.56;;;;;;;;;;341873;155;856331;-60
2021/09/07 18:30:08;;;;;;;29.29;14.05;;;;;;;;;;340625;155;864643;-60
2021/09/07 18:31:10;;;;;;;27.45;13.31;;;;;;;;;;341523;155;856359;-60
2021/09/07 18:32:11;;;;;;;26.31;13.94;;;;;;;;;;339021;155;856453;-60
2021/09/07 18:33:16;;;;;;;26.89;13.24;;;;;;;;;;343517;155;856389;-60
2021/09/07 18:34:17;;;;;;;31.26;13.01;;;;;;;;;;341100;155;856638;-60
2021/09/07 18:35:19;;;;;;;32.54;14.24;;;;;;;;;;339760;155;856488;-59
2021/09/07 18:36:21;;;;;;;28.05;13.41;;;;;;;;;;341823;155;856422;-59
2021/09/07 18:37:23;;;;;;;24.49;13.31;;;;;;;;;;343799;155;856158;-60
2021/09/07 18:38:24;;;;;;;21.78;12.93;;;;;;;;;;340748;155;856267;-60
2021/09/07 18:39:27;;;;;;;30.62;13.38;;;;;;;;;;340227;155;856307;-60
2021/09/07 18:40:30;;;;;;;27.89;13.54;;;;;;;;;;340332;155;856656;-60
2021/09/07 18:41:32;;;;;;;22.07;12.56;;;;;;;;;;340652;155;856821;-60
2021/09/07 18:42:35;;;;;;;24.01;12.14;;;;;;;;;;340904;155;856278;-60
2021/09/07 18:43:37;;;;;;;24.69;12.19;;;;;;;;;;342537;155;863738;-60
2021/09/07 18:44:38;;;;;;;26.08;12.06;;;;;;;;;;339976;155;863813;-60
2021/09/07 18:45:40;;;;;;;25.93;12.63;;;;;;;;;;343283;155;856383;-60
2021/09/07 18:46:41;;;;;;;25.18;13.13;;;;;;;;;;340006;155;856238;-60
2021/09/07 18:47:43;;;;;;;25.27;12.46;;;;;;;;;;340745;155;863843;-60
2021/09/07 18:48:45;;;;;;;25.06;12.67;;;;;;;;;;340512;155;856531;-60
2021/09/07 18:49:46;;;;;;;25.19;12.56;;;;;;;;;;340916;155;856211;-60
2021/09/07 18:50:49;;;;;;;24.89;12.75;;;;;;;;;;334630;158;857013;-60
2021/09/07 18:51:50;;;;;;;23.34;12.27;;;;;;;;;;337524;158;863719;-60
2021/09/07 18:52:52;;;;;;;23.11;11.68;;;;;;;;;;335493;158;856536;-60
2021/09/07 18:53:54;;;;;;;22.72;12.55;;;;;;;;;;334732;158;856654;-60
2021/09/07 18:54:55;;;;;;;24.19;11.71;;;;;;;;;;334813;158;856301;-60
2021/09/07 18:55:57;;;;;;;26.92;11.31;;;;;;;;;;335568;158;863808;-59
2021/09/07 18:56:59;;;;;;;23.54;12.00;;;;;;;;;;335294;158;858714;-59
2021/09/07 18:58:01;;;;;;;25.94;11.53;;;;;;;;;;334680;158;857205;-59
2021/09/07 18:59:02;;;;;;;29.59;11.27;;;;;;;;;;338334;158;864891;-59
2021/09/07 19:00:04;;;;;;;25.19;12.15;;;;;;;;;;334109;158;857430;-60
2021/09/07 19:01:06;;;;;;;20.01;11.48;;;;;;;;;;334974;158;866627;-59
2021/09/07 19:02:08;;;;;;;28.00;12.42;;;;;;;;;;337851;157;857792;-59
2021/09/07 19:03:09;;;;;;;26.49;12.24;;;;;;;;;;333790;158;863911;-59
2021/09/07 19:04:11;;;;;;;25.11;11.49;;;;;;;;;;331614;158;857586;-60
2021/09/07 19:05:12;;;;;;;24.13;11.62;;;;;;;;;;333288;158;857948;-59
2021/09/07 19:06:14;;;;;;;23.59;11.64;;;;;;;;;;333204;158;857504;-60
2021/09/07 19:07:16;;;;;;;20.21;11.88;;;;;;;;;;334778;158;865036;-58
2021/09/07 19:08:18;;;;;;;20.04;10.96;;;;;;;;;;332696;158;857465;-58
2021/09/07 19:09:19;;;;;;;25.76;12.31;;;;;;;;;;334794;159;857430;-59
2021/09/07 19:10:22;;;;;;;24.53;11.53;;;;;;;;;;328460;161;864972;-60
2021/09/07 19:11:23;;;;;;;23.19;11.50;;;;;;;;;;334710;158;858965;-60
2021/09/07 19:12:25;;;;;;;23.50;11.36;;;;;;;;;;337248;156;858436;-60
2021/09/07 19:13:27;;;;;;;21.27;11.71;;;;;;;;;;336324;158;858604;-60
2021/09/07 19:14:29;;;;;;;19.58;10.12;;;;;;;;;;336902;158;858757;-60
2021/09/07 19:15:30;;;;;;;23.41;11.39;;;;;;;;;;334777;158;857239;-60
2021/09/07 19:16:33;;;;;;;21.66;10.94;;;;;;;;;;336522;158;857466;-59
2021/09/07 19:17:35;;;;;;;23.46;12.22;;;;;;;;;;334539;158;859204;-59
2021/09/07 19:18:39;;;;;;;22.05;10.72;;;;;;;;;;332355;158;866522;-59
2021/09/07 19:19:41;;;;;;;21.87;10.71;;;;;;;;;;331188;160;859342;-60
2021/09/07 19:20:42;;;;;;;22.00;11.07;;;;;;;;;;331052;160;857813;-59
2021/09/07 19:21:44;;;;;;;20.78;9.90;;;;;;;;;;325629;162;867392;-60
2021/09/07 19:22:46;;;;;;;20.67;10.02;;;;;;;;;;324198;161;857380;-59
2021/09/07 19:23:47;;;;;;;17.38;9.82;;;;;;;;;;325144;162;857471;-59
2021/09/07 19:24:49;;;;;;;24.53;10.13;;;;;;;;;;326494;161;857315;-61
2021/09/07 19:25:51;;;;;;;21.20;10.06;;;;;;;;;;325352;161;864974;-60
2021/09/07 19:26:52;;;;;;;18.87;9.16;;;;;;;;;;326111;162;864917;-59
2021/09/07 19:27:54;;;;;;;20.26;9.34;;;;;;;;;;335505;158;865190;-59
2021/09/07 19:28:55;;;;;;;15.79;8.88;;;;;;;;;;335956;158;859675;-59
2021/09/07 19:29:57;;;;;;;17.07;10.06;;;;;;;;;;334972;158;865750;-59
2021/09/07 19:30:59;;;;;;;18.34;9.91;;;;;;;;;;334442;158;857549;-59
2021/09/07 19:32:01;;;;;;;21.41;9.81;;;;;;;;;;331278;160;857396;-60
2021/09/07 19:33:02;;;;;;;19.60;10.62;;;;;;;;;;334198;158;864900;-59
2021/09/07 19:34:04;;;;;;;17.11;9.36;;;;;;;;;;333700;158;866236;-60
2021/09/07 19:35:06;;;;;;;21.25;9.67;;;;;;;;;;334122;158;865113;-59
2021/09/07 19:36:08;;;;;;;25.06;11.32;;;;;;;;;;329649;160;857388;-60
2021/09/07 19:37:10;;;;;;;20.53;10.08;;;;;;;;;;329847;159;860535;-60
2021/09/07 19:38:12;;;;;;;17.61;10.41;;;;;;;;;;323692;163;865248;-60
2021/09/07 19:39:13;;;;;;;19.57;10.48;;;;;;;;;;329714;161;865254;-60
2021/09/07 19:40:15;;;;;;;18.42;10.02;;;;;;;;;;329766;160;857710;-60
2021/09/07 19:41:17;;;;;;;21.04;10.54;;;;;;;;;;330691;160;865204;-60
2021/09/07 19:42:18;;;;;;;21.68;10.01;;;;;;;;;;329301;159;857560;-59
2021/09/07 19:43:20;;;;;;;18.65;9.87;;;;;;;;;;329165;160;866679;-59
2021/09/07 19:44:22;;;;;;;21.05;10.12;;;;;;;;;;330174;159;858985;-59
2021/09/07 19:45:24;;;;;;;22.92;9.96;;;;;;;;;;325673;162;859226;-60
2021/09/07 19:46:26;;;;;;;17.56;9.59;;;;;;;;;;334759;158;864882;-60
2021/09/07 19:47:27;;;;;;;19.54;9.36;;;;;;;;;;333148;158;857789;-59
2021/09/07 19:48:29;;;;;;;20.24;9.40;;;;;;;;;;335232;158;868125;-59
2021/09/07 19:49:30;;;;;;;17.34;9.99;;;;;;;;;;335032;158;859416;-60
2021/09/07 19:50:32;;;;;;;23.09;10.22;;;;;;;;;;333232;158;857440;-59
2021/09/07 19:51:34;;;;;;;16.73;9.65;;;;;;;;;;335721;158;865000;-59
2021/09/07 19:52:35;;;;;;;21.51;8.88;;;;;;;;;;335167;158;857380;-59
2021/09/07 19:53:37;;;;;;;19.73;9.46;;;;;;;;;;333575;158;859107;-61
2021/09/07 19:54:38;;;;;;;17.03;9.38;;;;;;;;;;334382;158;866894;-60
2021/09/07 19:55:40;;;;;;;17.96;9.27;;;;;;;;;;335033;158;858262;-60
2021/09/07 19:56:42;;;;;;;17.61;10.40;;;;;;;;;;334111;158;857714;-60
2021/09/07 19:57:43;;;;;;;20.11;9.52;;;;;;;;;;330115;160;865197;-60
2021/09/07 19:58:45;;;;;;;18.58;9.10;;;;;;;;;;329596;160;858041;-60
2021/09/07 19:59:46;;;;;;;18.53;9.31;;;;;;;;;;330012;159;860745;-60
2021/09/07 20:00:48;;;;;;;21.79;9.14;;;;;;;;;;327006;162;857296;-59
2021/09/07 20:01:50;;;;;;;15.48;9.54;;;;;;;;;;335370;158;857399;-60
2021/09/07 20:02:51;;;;;;;19.25;9.02;;;;;;;;;;333775;158;865497;-60
2021/09/07 20:03:53;;;;;;;20.97;9.13;;;;;;;;;;334782;158;857100;-60
2021/09/07 20:04:54;;;;;;;19.49;9.25;;;;;;;;;;336803;158;857328;-60
2021/09/07 20:05:56;;;;;;;16.40;9.24;;;;;;;;;;333958;158;859185;-59
2021/09/07 20:06:57;;;;;;;15.84;8.39;;;;;;;;;;335007;158;859106;-59
2021/09/07 20:07:59;;;;;;;18.12;9.33;;;;;;;;;;335636;158;868580;-60
2021/09/07 20:09:01;;;;;;;19.59;9.06;;;;;;;;;;334956;159;857322;-60
2021/09/07 20:10:03;;;;;;;16.58;8.65;;;;;;;;;;334524;158;857245;-60
2021/09/07 20:11:05;;;;;;;20.79;8.86;;;;;;;;;;335600;159;865014;-59
2021/09/07 20:12:06;;;;;;;19.54;8.73;;;;;;;;;;334996;158;857433;-60
2021/09/07 20:13:08;;;;;;;17.41;9.64;;;;;;;;;;334835;158;865184;-60
2021/09/07 20:14:11;;;;;;;18.24;9.51;;;;;;;;;;334075;158;866013;-60
2021/09/07 20:15:13;;;;;;;19.41;9.33;;;;;;;;;;335459;158;858804;-60
2021/09/07 20:16:15;;;;;;;19.61;8.99;;;;;;;;;;334974;158;859504;-60
2021/09/07 20:17:17;;;;;;;18.76;9.14;;;;;;;;;;334478;158;859552;-60
2021/09/07 20:18:18;;;;;;;15.90;9.06;;;;;;;;;;334225;158;857482;-60
2021/09/07 20:19:20;;;;;;;16.43;9.25;;;;;;;;;;335277;158;857780;-60
2021/09/07 20:20:22;;;;;;;16.32;8.91;;;;;;;;;;334325;158;868633;-60
2021/09/07 20:21:23;;;;;;;19.79;8.84;;;;;;;;;;334956;158;867419;-60
2021/09/07 20:22:25;;;;;;;21.87;9.59;;;;;;;;;;334761;158;859816;-60
2021/09/07 20:23:27;;;;;;;17.94;9.21;;;;;;;;;;335883;158;857319;-60
2021/09/07 20:24:28;;;;;;;15.82;9.10;;;;;;;;;;335839;158;858864;-60
2021/09/07 20:25:30;;;;;;;14.61;9.91;;;;;;;;;;334713;158;866014;-60
2021/09/07 20:26:31;;;;;;;16.77;9.03;;;;;;;;;;334673;158;867116;-60
2021/09/07 20:27:33;;;;;;;17.79;9.27;;;;;;;;;;335050;158;859648;-60
2021/09/07 20:28:35;;;;;;;21.13;8.99;;;;;;;;;;333019;158;865061;-60
2021/09/07 20:29:37;;;;;;;17.35;10.30;;;;;;;;;;334450;158;857885;-60
2021/09/07 20:30:39;;;;;;;19.58;9.25;;;;;;;;;;329023;160;857356;-60
2021/09/07 20:31:40;;;;;;;20.61;9.92;;;;;;;;;;326093;161;857834;-60
2021/09/07 20:32:42;;;;;;;18.09;9.91;;;;;;;;;;328342;160;864696;-60
2021/09/07 20:33:45;;;;;;;20.41;9.91;;;;;;;;;;334136;158;865614;-60
2021/09/07 20:34:46;;;;;;;16.59;10.08;;;;;;;;;;334899;158;864672;-60
2021/09/07 20:35:48;;;;;;;27.06;10.06;;;;;;;;;;334641;158;858486;-61
2021/09/07 20:36:50;;;;;;;17.96;9.89;;;;;;;;;;335163;158;857433;-61
2021/09/07 20:37:51;;;;;;;18.20;10.44;;;;;;;;;;334769;158;857377;-60
2021/09/07 20:38:53;;;;;;;19.55;10.43;;;;;;;;;;330106;160;866144;-60
2021/09/07 20:39:54;;;;;;;19.25;10.81;;;;;;;;;;328508;159;858205;-60
2021/09/07 20:40:56;;;;;;;19.49;10.81;;;;;;;;;;330310;160;860223;-60
2021/09/07 20:41:58;;;;;;;22.53;12.01;;;;;;;;;;335343;160;858833;-60
2021/09/07 20:43:00;;;;;;;22.48;10.92;;;;;;;;;;335263;158;857994;-60
2021/09/07 20:44:01;;;;;;;23.84;11.41;;;;;;;;;;335533;158;858197;-60
2021/09/07 20:45:05;;;;;;;19.76;10.67;;;;;;;;;;334822;158;857397;-60
2021/09/07 20:46:07;;;;;;;19.71;11.09;;;;;;;;;;337075;158;857493;-60
2021/09/07 20:47:08;;;;;;;27.79;11.56;;;;;;;;;;336835;158;858078;-60
2021/09/07 20:48:11;;;;;;;22.01;11.45;;;;;;;;;;334856;158;864937;-60
2021/09/07 20:49:13;;;;;;;18.32;11.39;;;;;;;;;;336031;158;860676;-60
2021/09/07 20:50:15;;;;;;;22.11;11.21;;;;;;;;;;334884;158;857586;-59
2021/09/07 20:51:16;;;;;;;21.61;11.09;;;;;;;;;;328696;160;857871;-57
2021/09/07 20:52:18;;;;;;;21.09;11.41;;;;;;;;;;326782;162;860020;-59
2021/09/07 20:53:21;;;;;;;22.17;10.66;;;;;;;;;;327065;162;858719;-59
2021/09/07 20:54:22;;;;;;;22.74;11.82;;;;;;;;;;329383;161;866618;-58
2021/09/07 20:55:24;;;;;;;21.22;10.64;;;;;;;;;;334635;158;857298;-61
2021/09/07 20:56:26;;;;;;;24.75;12.06;;;;;;;;;;336021;158;859178;-61
2021/09/07 20:57:27;;;;;;;19.38;10.69;;;;;;;;;;335523;158;857279;-61
2021/09/07 20:58:29;;;;;;;17.47;10.41;;;;;;;;;;334869;158;860152;-61
2021/09/07 20:59:31;;;;;;;22.23;11.44;;;;;;;;;;335013;158;857589;-61
2021/09/07 21:00:32;;;;;;;19.34;10.69;;;;;;;;;;334642;160;866000;-60
2021/09/07 21:01:34;;;;;;;22.24;11.41;;;;;;;;;;334145;158;864720;-60
2021/09/07 21:02:36;;;;;;;21.08;11.42;;;;;;;;;;334991;158;865007;-60
2021/09/07 21:03:38;;;;;;;22.65;12.37;;;;;;;;;;334809;158;857418;-61
2021/09/07 21:04:39;;;;;;;20.91;11.93;;;;;;;;;;334965;158;857345;-61
2021/09/07 21:05:41;;;;;;;19.55;11.39;;;;;;;;;;334984;158;857342;-60
2021/09/07 21:06:43;;;;;;;23.69;11.89;;;;;;;;;;334655;158;859186;-60
2021/09/07 21:07:45;;;;;;;19.53;11.60;;;;;;;;;;332622;158;862271;-61
2021/09/07 21:08:46;;;;;;;21.21;11.81;;;;;;;;;;329622;159;858534;-60
2021/09/07 21:09:49;;;;;;;25.75;12.53;;;;;;;;;;332537;160;857964;-61
2021/09/07 21:10:51;;;;;;;23.97;11.94;;;;;;;;;;333413;160;864944;-60
2021/09/07 21:11:53;;;;;;;23.99;12.11;;;;;;;;;;331126;160;861344;-60
2021/09/07 21:12:55;;;;;;;28.86;12.09;;;;;;;;;;325168;161;857242;-60
2021/09/07 21:13:56;;;;;;;22.63;11.96;;;;;;;;;;325501;162;864915;-60
2021/09/07 21:14:58;;;;;;;26.55;12.23;;;;;;;;;;325595;161;865889;-59
2021/09/07 21:15:59;;;;;;;22.15;12.53;;;;;;;;;;326121;162;866189;-60
2021/09/07 21:17:01;;;;;;;23.28;12.04;;;;;;;;;;326262;161;866776;-60
2021/09/07 21:18:03;;;;;;;20.98;11.97;;;;;;;;;;326275;162;857906;-59
2021/09/07 21:19:04;;;;;;;20.09;11.89;;;;;;;;;;325768;162;859638;-60
2021/09/07 21:20:06;;;;;;;25.94;11.24;;;;;;;;;;330298;159;864960;-60
2021/09/07 21:21:08;;;;;;;20.05;11.95;;;;;;;;;;332254;159;864970;-60